Time;durP1;ratioP1;P1;durP2;ratioP2;P2;SDS_P1;SDS_P2;PMS_P1;PMS_P2;Temp;Humidity;BMP_temperature;BMP_pressure;BME280_temperature;BME280_humidity;BME280_pressure;Samples;Min_cycle;Max_cycle;Signal;HPM_P1;HPM_P2
2021/09/21 08:07:29;;;;;;;0.53;0.51;;;;;;;5.96;78.23;99693.32;367759;142;880083;-61
2021/09/21 08:08:31;;;;;;;0.72;0.62;;;;;;;5.88;78.35;99684.70;355277;149;858640;-61
2021/09/21 08:09:33;;;;;;;1.16;0.69;;;;;;;5.90;78.15;99683.00;358349;147;857358;-61
2021/09/21 08:10:37;;;;;;;2.02;0.84;;;;;;;5.95;78.15;99694.17;356724;147;857406;-59
2021/09/21 08:11:38;;;;;;;1.58;0.69;;;;;;;6.04;77.56;99692.54;358830;147;858277;-59
2021/09/21 08:12:40;;;;;;;0.82;0.51;;;;;;;6.17;77.31;99690.92;356962;147;857390;-60
2021/09/21 08:13:42;;;;;;;0.75;0.59;;;;;;;6.32;77.16;99687.56;358926;147;864977;-59
2021/09/21 08:14:48;;;;;;;0.64;0.49;;;;;;;6.33;75.88;99686.70;357550;147;864813;-59
2021/09/21 08:15:47;;;;;;;1.36;0.64;;;;;;;6.48;76.08;99689.37;358478;148;864959;-60
2021/09/21 08:16:49;;;;;;;0.74;0.52;;;;;;;6.62;75.34;99686.85;358828;147;857294;-59
2021/09/21 08:17:51;;;;;;;1.11;0.65;;;;;;;6.70;75.02;99684.32;359084;148;858342;-60
2021/09/21 08:18:53;;;;;;;1.16;0.56;;;;;;;6.83;74.48;99686.08;357347;147;859153;-59
2021/09/21 08:19:55;;;;;;;1.10;0.60;;;;;;;7.02;74.19;99691.27;359838;147;866468;-59
2021/09/21 08:20:57;;;;;;;1.06;0.72;;;;;;;7.23;73.94;99689.59;360040;147;866505;-60
2021/09/21 08:21:59;;;;;;;0.64;0.54;;;;;;;7.11;72.15;99686.14;359541;147;857245;-60
2021/09/21 08:23:00;;;;;;;0.49;0.34;;;;;;;7.42;72.68;99688.80;357254;147;864893;-59
2021/09/21 08:24:03;;;;;;;0.53;0.47;;;;;;;7.67;73.74;99701.67;357830;147;864866;-59
2021/09/21 08:25:06;;;;;;;3.25;0.47;;;;;;;7.85;71.34;99699.95;359522;147;865340;-61
2021/09/21 08:26:08;;;;;;;0.88;0.55;;;;;;;7.98;70.90;99695.66;358560;147;859937;-62
2021/09/21 08:27:10;;;;;;;2.05;0.40;;;;;;;8.14;70.13;99692.19;359068;147;865008;-61
2021/09/21 08:28:12;;;;;;;0.41;0.34;;;;;;;8.34;70.95;99697.27;358709;147;865031;-60
2021/09/21 08:29:14;;;;;;;0.65;0.49;;;;;;;8.48;69.15;99688.63;349978;150;864941;-61
2021/09/21 08:30:19;;;;;;;0.63;0.51;;;;;;;8.62;68.75;99683.46;349639;150;858816;-61
2021/09/21 08:31:20;;;;;;;1.21;0.79;;;;;;;8.76;67.43;99675.67;358671;147;866502;-61
2021/09/21 08:32:22;;;;;;;0.67;0.58;;;;;;;;;;357844;148;864895;-60
2021/09/21 08:33:23;;;;;;;0.83;0.59;;;;;;;;;;358351;148;866622;-60
2021/09/21 08:34:26;;;;;;;1.83;0.47;;;;;;;;;;359899;147;858555;-61
2021/09/21 08:35:28;;;;;;;1.67;0.57;;;;;;;;;;358989;147;857197;-60
2021/09/21 08:36:31;;;;;;;0.51;0.43;;;;;;;;;;358840;147;858388;-59
2021/09/21 08:37:33;;;;;;;0.71;0.53;;;;;;;;;;358510;147;857332;-60
2021/09/21 08:38:34;;;;;;;1.31;0.72;;;;;;;;;;357383;148;857858;-60
2021/09/21 08:39:36;;;;;;;1.16;0.60;;;;;;;;;;361398;147;860235;-61
2021/09/21 08:40:38;;;;;;;1.46;0.67;;;;;;;;;;359004;147;857368;-61
2021/09/21 08:41:39;;;;;;;0.48;0.48;;;;;;;;;;357731;147;865056;-61
2021/09/21 08:42:41;;;;;;;0.80;0.50;;;;;;;;;;357641;147;865345;-61
2021/09/21 08:43:42;;;;;;;2.81;0.51;;;;;;;;;;358734;147;857324;-61
2021/09/21 08:44:44;;;;;;;1.39;0.66;;;;;;;;;;358307;147;866753;-61
2021/09/21 08:45:46;;;;;;;1.31;0.64;;;;;;;;;;358419;147;859047;-61
2021/09/21 08:46:47;;;;;;;0.57;0.56;;;;;;;;;;358476;147;859026;-61
2021/09/21 08:47:49;;;;;;;1.31;0.70;;;;;;;;;;358567;147;858752;-61
2021/09/21 08:48:51;;;;;;;0.90;0.59;;;;;;;;;;358690;147;865383;-60
2021/09/21 08:49:52;;;;;;;0.69;0.50;;;;;;;;;;358637;147;864806;-61
2021/09/21 08:50:54;;;;;;;1.15;0.60;;;;;;;;;;358257;147;857325;-62
2021/09/21 08:51:55;;;;;;;0.39;0.36;;;;;;;;;;355849;147;866555;-62
2021/09/21 08:52:57;;;;;;;1.31;0.45;;;;;;;;;;357919;147;860329;-62
2021/09/21 08:53:58;;;;;;;0.82;0.60;;;;;;;;;;360095;147;858108;-62
2021/09/21 08:55:01;;;;;;;1.11;0.68;;;;;;;;;;358420;150;864881;-61
2021/09/21 08:56:03;;;;;;;1.29;0.70;;;;;;;;;;359154;147;864766;-62
2021/09/21 08:57:05;;;;;;;0.77;0.73;;;;;;;;;;359086;147;857328;-61
2021/09/21 08:58:06;;;;;;;0.55;0.52;;;;;;;;;;358260;147;865204;-60
2021/09/21 08:59:12;;;;;;;1.34;0.66;;;;;;;;;;359054;147;857374;-61
2021/09/21 09:00:20;;;;;;;2.24;0.63;;;;;;;;;;358060;147;865472;-61
2021/09/21 09:01:22;;;;;;;0.98;0.80;;;;;;;;;;360118;147;858184;-61
2021/09/21 09:02:23;;;;;;;1.83;0.82;;;;;;;;;;359576;150;857777;-61
2021/09/21 09:03:27;;;;;;;1.86;0.50;;;;;;;;;;359169;147;865007;-61
2021/09/21 09:04:30;;;;;;;1.63;0.49;;;;;;;;;;359445;147;864833;-61
2021/09/21 09:05:41;;;;;;;0.75;0.73;;;;;;;;;;358860;147;857436;-61
2021/09/21 09:06:44;;;;;;;0.76;0.70;;;;;;;;;;358253;147;857761;-62
2021/09/21 09:07:52;;;;;;;2.59;0.70;;;;;;;;;;357130;147;857743;-60
2021/09/21 09:08:54;;;;;;;0.78;0.63;;;;;;;;;;355815;149;857356;-61
2021/09/21 09:10:02;;;;;;;1.13;0.71;;;;;;;;;;356648;150;859450;-60
2021/09/21 09:11:11;;;;;;;0.63;0.58;;;;;;;;;;356222;148;864951;-62
2021/09/21 09:12:12;;;;;;;0.88;0.72;;;;;;;;;;357110;148;857384;-63
2021/09/21 09:13:18;;;;;;;0.97;0.79;;;;;;;;;;356312;148;857915;-62
2021/09/21 09:14:27;;;;;;;1.31;0.90;;;;;;;;;;356590;148;864924;-60
2021/09/21 09:15:50;;;;;;;0.92;0.66;;;;;;;;;;356320;148;857762;-61
2021/09/21 09:16:54;;;;;;;0.65;0.65;;;;;;;;;;358671;146;857750;-60
2021/09/21 09:17:57;;;;;;;1.12;0.80;;;;;;;;;;359772;146;858879;-60
2021/09/21 09:19:01;;;;;;;1.49;0.98;;;;;;;;;;357474;146;857534;-61
2021/09/21 09:20:03;;;;;;;2.46;0.71;;;;;;;;;;357069;146;864778;-61
2021/09/21 09:21:04;;;;;;;1.15;0.81;;;;;;;;;;357963;147;864925;-61
2021/09/21 09:22:07;;;;;;;1.35;0.95;;;;;;;;;;358587;147;858838;-61
2021/09/21 09:23:09;;;;;;;2.11;0.68;;;;;;;;;;357923;146;859870;-60
2021/09/21 09:24:10;;;;;;;1.08;0.73;;;;;;;;;;358207;147;858406;-60
2021/09/21 09:25:12;;;;;;;0.82;0.69;;;;;;;;;;356890;146;857529;-60
2021/09/21 09:26:16;;;;;;;1.50;0.74;;;;;;;;;;358344;146;864952;-60
2021/09/21 09:27:17;;;;;;;1.09;0.95;;;;;;;;;;360544;147;857428;-60
2021/09/21 09:28:20;;;;;;;1.85;0.80;;;;;;;;;;354454;148;857147;-60
2021/09/21 09:29:22;;;;;;;1.15;0.78;;;;;;;;;;352889;147;857411;-60
2021/09/21 09:30:24;;;;;;;1.31;0.82;;;;;;;;;;352448;150;864951;-60
2021/09/21 09:31:26;;;;;;;3.21;1.04;;;;;;;;;;353155;148;857322;-61
2021/09/21 09:32:28;;;;;;;1.12;0.87;;;;;;;;;;353204;150;865299;-60
2021/09/21 09:33:31;;;;;;;1.13;0.81;;;;;;;;;;352774;149;858970;-60
2021/09/21 09:34:33;;;;;;;0.75;0.68;;;;;;;;;;352898;149;859672;-60
2021/09/21 09:35:35;;;;;;;2.50;0.80;;;;;;;;;;352428;149;859017;-60
2021/09/21 09:36:41;;;;;;;0.83;0.69;;;;;;;;;;352164;148;858889;-60
2021/09/21 09:37:43;;;;;;;1.79;0.86;;;;;;;;;;352617;150;859528;-60
2021/09/21 09:38:45;;;;;;;0.82;0.81;;;;;;;;;;352085;149;859767;-59
2021/09/21 09:39:47;;;;;;;1.01;0.88;;;;;;;;;;353059;149;864911;-60
2021/09/21 09:40:50;;;;;;;1.03;0.75;;;;;;;;;;352671;147;857308;-61
2021/09/21 09:41:54;;;;;;;1.23;0.90;;;;;;;;;;353069;148;857459;-60
2021/09/21 09:42:55;;;;;;;2.25;0.78;;;;;;;;;;353121;149;858067;-60
2021/09/21 09:43:59;;;;;;;1.38;0.90;;;;;;;;;;352848;148;859687;-59
2021/09/21 09:45:01;;;;;;;1.15;0.78;;;;;;;;;;353017;149;861892;-60
2021/09/21 09:46:03;;;;;;;0.97;0.86;;;;;;;;;;353255;149;858593;-60
2021/09/21 09:47:05;;;;;;;1.31;0.81;;;;;;;;;;353146;148;866097;-60
2021/09/21 09:48:07;;;;;;;1.05;0.84;;;;;;;;;;352196;149;857622;-61
2021/09/21 09:49:10;;;;;;;1.66;1.06;;;;;;;;;;352326;151;857354;-60
2021/09/21 09:50:13;;;;;;;1.73;0.99;;;;;;;;;;355142;149;857340;-62
2021/09/21 09:51:17;;;;;;;1.10;0.89;;;;;;;;;;352701;147;859939;-61
2021/09/21 09:52:18;;;;;;;1.38;0.86;;;;;;;;;;352468;148;858156;-61
2021/09/21 09:53:21;;;;;;;1.65;0.96;;;;;;;;;;353004;148;859530;-60
2021/09/21 09:54:22;;;;;;;1.02;0.91;;;;;;;;;;355267;147;865507;-60
2021/09/21 09:55:24;;;;;;;0.92;0.79;;;;;;;;;;353290;150;858705;-60
2021/09/21 09:56:26;;;;;;;1.23;0.87;;;;;;;;;;356961;148;865023;-60
2021/09/21 09:57:28;;;;;;;1.07;0.74;;;;;;;;;;353179;148;857217;-62
2021/09/21 09:58:29;;;;;;;2.51;0.96;;;;;;;;;;352137;148;857318;-61
2021/09/21 09:59:31;;;;;;;1.21;0.96;;;;;;;;;;355092;149;857256;-61
2021/09/21 10:00:35;;;;;;;0.72;0.71;;;;;;;;;;353806;151;866713;-61
2021/09/21 10:01:38;;;;;;;1.34;0.91;;;;;;;;;;354881;149;857274;-61
2021/09/21 10:02:41;;;;;;;0.81;0.70;;;;;;;;;;352568;148;864881;-61
2021/09/21 10:03:44;;;;;;;1.35;0.99;;;;;;;;;;340976;154;860915;-62
2021/09/21 10:04:45;;;;;;;0.76;0.67;;;;;;;;;;340884;149;860519;-61
2021/09/21 10:05:47;;;;;;;1.08;0.88;;;;;;;;;;350914;147;865357;-60
2021/09/21 10:06:49;;;;;;;1.09;0.89;;;;;;;;;;346841;151;857388;-60
2021/09/21 10:07:50;;;;;;;1.24;0.90;;;;;;;;;;349004;152;857263;-60
2021/09/21 10:08:53;;;;;;;1.10;1.00;;;;;;;;;;353830;148;857398;-61
2021/09/21 10:09:54;;;;;;;1.01;0.79;;;;;;;;;;351856;147;864873;-61
2021/09/21 10:10:56;;;;;;;1.09;0.99;;;;;;;;;;351542;151;857321;-60
2021/09/21 10:11:58;;;;;;;3.04;1.21;;;;;;;;;;350374;151;857826;-61
2021/09/21 10:13:00;;;;;;;1.19;1.09;;;;;;;;;;347268;151;858918;-61
2021/09/21 10:14:02;;;;;;;1.85;1.23;;;;;;;;;;352360;150;858350;-60
2021/09/21 10:15:06;;;;;;;1.56;0.90;;;;;;;;;;354853;148;857358;-61
2021/09/21 10:16:08;;;;;;;1.22;1.01;;;;;;;;;;353485;147;865068;-61
2021/09/21 10:17:09;;;;;;;2.46;0.84;;;;;;;;;;353386;150;857449;-61
2021/09/21 10:18:20;;;;;;;2.21;1.12;;;;;;;;;;348443;151;866857;-61
2021/09/21 10:19:22;;;;;;;1.56;1.03;;;;;;;;;;348750;151;857967;-62
2021/09/21 10:20:34;;;;;;;0.91;0.82;;;;;;;;;;352630;147;856258;-59
2021/09/21 10:21:37;;;;;;;1.64;1.19;;;;;;;;;;352510;148;856182;-61
2021/09/21 10:22:39;;;;;;;1.02;0.89;;;;;;;;;;352964;151;857324;-60
2021/09/21 10:23:40;;;;;;;1.12;0.86;;;;;;;;;;353082;149;866975;-60
2021/09/21 10:24:42;;;;;;;0.87;0.75;;;;;;;;;;352597;149;858100;-60
2021/09/21 10:25:44;;;;;;;0.89;0.80;;;;;;;;;;354922;147;865931;-61
2021/09/21 10:26:49;;;;;;;1.01;0.84;;;;;;;;;;353937;148;859372;-61
2021/09/21 10:27:51;;;;;;;2.56;0.90;;;;;;;;;;352119;148;857521;-61
2021/09/21 10:28:53;;;;;;;1.77;0.89;;;;;;;;;;354257;148;857889;-63
2021/09/21 10:30:04;;;;;;;0.71;0.71;;;;;;;;;;352202;151;858209;-63
2021/09/21 10:31:13;;;;;;;0.88;0.70;;;;;;;;;;352756;148;859828;-61
2021/09/21 10:32:15;;;;;;;1.63;0.84;;;;;;;;;;353691;150;857380;-60
2021/09/21 10:33:18;;;;;;;0.87;0.75;;;;;;;;;;353439;149;857323;-59
2021/09/21 10:34:20;;;;;;;0.95;0.72;;;;;;;;;;352035;148;859028;-61
2021/09/21 10:35:22;;;;;;;0.85;0.52;;;;;;;;;;353560;149;859588;-60
2021/09/21 10:36:25;;;;;;;0.95;0.87;;;;;;;;;;351823;151;857504;-60
2021/09/21 10:37:28;;;;;;;0.91;0.76;;;;;;;;;;351099;148;864817;-59
2021/09/21 10:38:30;;;;;;;0.76;0.69;;;;;;;;;;352002;147;857215;-61
2021/09/21 10:39:31;;;;;;;0.85;0.83;;;;;;;;;;355440;149;857770;-62
2021/09/21 10:40:35;;;;;;;0.77;0.77;;;;;;;;;;355400;148;857341;-62
2021/09/21 10:41:47;;;;;;;1.44;0.83;;;;;;;;;;353031;148;857841;-61
2021/09/21 10:42:49;;;;;;;0.97;0.84;;;;;;;;;;353046;149;857751;-60
2021/09/21 10:43:59;;;;;;;3.44;0.70;;;;;;;;;;352903;151;857878;-59
2021/09/21 10:45:02;;;;;;;2.15;0.70;;;;;;;;;;352083;151;864982;-59
2021/09/21 10:46:05;;;;;;;0.88;0.76;;;;;;;;;;352461;148;857377;-58
2021/09/21 10:47:07;;;;;;;2.41;0.79;;;;;;;;;;353574;150;858350;-58
2021/09/21 10:48:08;;;;;;;1.06;0.81;;;;;;;;;;353341;151;859272;-58
2021/09/21 10:49:10;;;;;;;1.16;0.77;;;;;;;;;;352650;147;857560;-59
2021/09/21 10:50:13;;;;;;;0.73;0.60;;;;;;;;;;350759;150;865076;-59
2021/09/21 10:51:14;;;;;;;0.76;0.59;;;;;;;;;;353181;151;859057;-59
2021/09/21 10:52:16;;;;;;;3.56;1.04;;;;;;;;;;352224;148;857320;-59
2021/09/21 10:53:20;;;;;;;0.93;0.70;;;;;;;;;;352058;148;859353;-59
2021/09/21 10:54:29;;;;;;;2.29;0.89;;;;;;;;;;352995;149;856532;-60
2021/09/21 10:55:38;;;;;;;0.81;0.74;;;;;;;;;;345501;151;857391;-61
2021/09/21 10:56:41;;;;;;;2.63;0.73;;;;;;;;;;352610;148;857866;-59
2021/09/21 10:57:46;;;;;;;0.91;0.79;;;;;;;;;;352377;149;857888;-58
2021/09/21 10:58:51;;;;;;;2.99;1.50;;;;;;;;;;346317;154;865135;-59
2021/09/21 10:59:58;;;;;;;2.49;0.68;;;;;;;;;;343650;152;857833;-58
2021/09/21 11:01:01;;;;;;;1.05;0.81;;;;;;;;;;344232;154;857724;-58
2021/09/21 11:02:04;;;;;;;0.77;0.70;;;;;;;;;;342780;154;858683;-59
2021/09/21 11:03:05;;;;;;;0.96;0.82;;;;;;;;;;342251;153;857751;-59
2021/09/21 11:04:07;;;;;;;1.19;0.82;;;;;;;;;;342363;153;857354;-59
2021/09/21 11:05:10;;;;;;;0.94;0.91;;;;;;;;;;346103;151;859361;-59
2021/09/21 11:06:14;;;;;;;2.11;1.01;;;;;;;;;;340557;156;860898;-59
2021/09/21 11:07:15;;;;;;;1.09;0.79;;;;;;;;;;339521;153;857443;-59
2021/09/21 11:08:18;;;;;;;1.09;0.80;;;;;;;;;;345545;153;857460;-58
2021/09/21 11:09:24;;;;;;;1.24;0.81;;;;;;;;;;345256;153;864984;-58
2021/09/21 11:10:29;;;;;;;2.18;0.71;;;;;;;;;;347820;151;859219;-60
2021/09/21 11:11:32;;;;;;;0.90;0.59;;;;;;;;;;346048;150;858797;-59
2021/09/21 11:12:34;;;;;;;1.26;0.70;;;;;;;;;;345993;153;857504;-58
2021/09/21 11:13:36;;;;;;;0.69;0.60;;;;;;;;;;343058;154;858183;-61
2021/09/21 11:14:38;;;;;;;0.73;0.57;;;;;;;;;;345770;150;860909;-58
2021/09/21 11:15:40;;;;;;;2.40;0.71;;;;;;;;;;343362;154;860792;-58
2021/09/21 11:16:44;;;;;;;0.90;0.71;;;;;;;;;;342728;154;857331;-58
2021/09/21 11:17:46;;;;;;;1.42;0.70;;;;;;;;;;342693;153;857502;-57
2021/09/21 11:18:50;;;;;;;1.03;0.65;;;;;;;;;;346047;151;858296;-59
2021/09/21 11:19:52;;;;;;;1.43;0.81;;;;;;;;;;346604;152;857309;-60
2021/09/21 11:20:57;;;;;;;1.94;0.77;;;;;;;;;;348260;153;859076;-58
2021/09/21 11:21:59;;;;;;;0.77;0.67;;;;;;;;;;346241;151;865277;-60
2021/09/21 11:23:01;;;;;;;1.06;0.70;;;;;;;;;;348070;153;864794;-60
2021/09/21 11:24:03;;;;;;;0.63;0.62;;;;;;;;;;346591;151;857415;-59
2021/09/21 11:25:09;;;;;;;0.60;0.51;;;;;;;;;;343130;153;858463;-68
2021/09/21 11:26:12;;;;;;;1.23;0.83;;;;;;;;;;343633;153;865895;-60
2021/09/21 11:27:14;;;;;;;0.65;0.57;;;;;;;;;;344828;154;857864;-59
2021/09/21 11:28:15;;;;;;;1.60;0.84;;;;;;;;;;345158;154;859569;-58
2021/09/21 11:29:17;;;;;;;0.77;0.63;;;;;;;;;;344345;151;857496;-58
2021/09/21 11:30:20;;;;;;;0.69;0.60;;;;;;;;;;343758;152;857338;-58
2021/09/21 11:31:22;;;;;;;0.80;0.64;;;;;;;;;;339552;157;857403;-60
2021/09/21 11:32:24;;;;;;;0.62;0.62;;;;;;;;;;342062;154;857316;-60
2021/09/21 11:33:26;;;;;;;1.66;0.71;;;;;;;;;;344534;152;864796;-58
2021/09/21 11:34:29;;;;;;;0.70;0.64;;;;;;;;;;344442;154;857731;-60
2021/09/21 11:35:31;;;;;;;1.82;0.57;;;;;;;;;;346004;154;864887;-59
2021/09/21 11:36:34;;;;;;;1.46;0.78;;;;;;;;;;343328;151;857674;-59
2021/09/21 11:37:36;;;;;;;0.75;0.51;;;;;;;;;;344464;152;859192;-62
2021/09/21 11:38:41;;;;;;;0.78;0.59;;;;;;;;;;343633;154;862075;-60
2021/09/21 11:39:43;;;;;;;0.73;0.69;;;;;;;;;;343758;151;858637;-60
2021/09/21 11:40:45;;;;;;;0.77;0.68;;;;;;;;;;344515;151;857309;-62
2021/09/21 11:41:50;;;;;;;0.46;0.46;;;;;;;;;;345864;154;858251;-60
2021/09/21 11:42:52;;;;;;;0.72;0.63;;;;;;;;;;344904;154;858479;-61
2021/09/21 11:43:54;;;;;;;1.46;0.64;;;;;;;;;;343678;151;857358;-63
2021/09/21 11:45:02;;;;;;;0.85;0.62;;;;;;;;;;344010;154;864888;-60
2021/09/21 11:46:04;;;;;;;1.03;0.67;;;;;;;;;;343312;154;864775;-60
2021/09/21 11:47:06;;;;;;;2.43;0.68;;;;;;;;;;344726;154;857538;-60
2021/09/21 11:48:11;;;;;;;1.46;0.79;;;;;;;;;;344167;152;865164;-61
2021/09/21 11:49:12;;;;;;;3.22;0.87;;;;;;;;;;344248;154;865957;-60
2021/09/21 11:50:16;;;;;;;0.88;0.71;;;;;;;;;;344894;154;857810;-60
2021/09/21 11:51:18;;;;;;;2.15;0.77;;;;;;;;;;344371;152;858703;-60
2021/09/21 11:52:20;;;;;;;1.45;0.65;;;;;;;;;;343667;152;865836;-59
2021/09/21 11:53:25;;;;;;;0.82;0.60;;;;;;;;;;341546;157;857984;-60
2021/09/21 11:54:27;;;;;;;0.72;0.72;;;;;;;;;;342526;154;864848;-60
2021/09/21 11:55:30;;;;;;;0.83;0.71;;;;;;;;;;341082;154;857161;-60
2021/09/21 11:56:32;;;;;;;0.93;0.80;;;;;;;;;;341305;157;859101;-61
2021/09/21 11:57:35;;;;;;;1.10;0.68;;;;;;;;;;344176;154;865635;-61
2021/09/21 11:58:37;;;;;;;2.67;0.83;;;;;;;;;;343832;152;857890;-60
2021/09/21 11:59:40;;;;;;;0.86;0.77;;;;;;;;;;344963;152;859811;-61
2021/09/21 12:00:44;;;;;;;0.66;0.58;;;;;;;;;;346001;154;865293;-60
2021/09/21 12:01:50;;;;;;;1.71;0.62;;;;;;;;;;343593;152;857787;-59
2021/09/21 12:02:55;;;;;;;0.89;0.82;;;;;;;;;;344169;152;865633;-59
2021/09/21 12:03:57;;;;;;;1.51;0.60;;;;;;;;;;343738;152;857330;-59
2021/09/21 12:04:58;;;;;;;0.76;0.54;;;;;;;;;;345126;152;857254;-59
2021/09/21 12:06:01;;;;;;;0.69;0.54;;;;;;;;;;343906;152;865035;-58
2021/09/21 12:07:03;;;;;;;0.79;0.53;;;;;;;;;;342791;154;858084;-58
2021/09/21 12:08:05;;;;;;;0.52;0.50;;;;;;;;;;344823;154;857439;-60
2021/09/21 12:09:07;;;;;;;1.48;0.62;;;;;;;;;;344231;151;857562;-58
2021/09/21 12:10:11;;;;;;;3.11;0.60;;;;;;;;;;338655;154;858591;-61
2021/09/21 12:11:17;;;;;;;0.62;0.58;;;;;;;;;;340856;157;865860;-61
2021/09/21 12:12:23;;;;;;;0.81;0.58;;;;;;;;;;343842;151;857371;-62
2021/09/21 12:13:26;;;;;;;0.74;0.48;;;;;;;;;;343342;152;857706;-61
2021/09/21 12:14:27;;;;;;;2.05;0.58;;;;;;;;;;343626;152;858160;-62
2021/09/21 12:15:29;;;;;;;1.09;0.60;;;;;;;;;;343398;154;864877;-62
2021/09/21 12:16:32;;;;;;;1.98;0.57;;;;;;;;;;342725;151;866727;-63
2021/09/21 12:17:43;;;;;;;0.54;0.54;;;;;;;;;;345225;152;865016;-61
2021/09/21 12:18:45;;;;;;;5.84;0.67;;;;;;;;;;346402;151;857663;-61
2021/09/21 12:19:47;;;;;;;0.58;0.50;;;;;;;;;;345154;151;857774;-61
2021/09/21 12:20:50;;;;;;;1.06;0.63;;;;;;;;;;345426;154;865675;-60
2021/09/21 12:21:52;;;;;;;0.54;0.54;;;;;;;;;;343936;154;865434;-61
2021/09/21 12:22:53;;;;;;;2.52;0.64;;;;;;;;;;342253;154;857882;-62
2021/09/21 12:23:55;;;;;;;0.56;0.56;;;;;;;;;;343576;153;858774;-62
2021/09/21 12:25:06;;;;;;;1.47;0.54;;;;;;;;;;345620;152;864890;-61
2021/09/21 12:26:09;;;;;;;2.07;0.60;;;;;;;;;;343906;154;858656;-61
2021/09/21 12:27:10;;;;;;;0.77;0.60;;;;;;;;;;345335;151;857849;-61
2021/09/21 12:28:12;;;;;;;1.50;0.50;;;;;;;;;;346369;151;860305;-62
2021/09/21 12:29:14;;;;;;;0.69;0.56;;;;;;;;;;348435;154;859864;-62
2021/09/21 12:30:16;;;;;;;0.81;0.70;;;;;;;;;;343342;153;864993;-63
2021/09/21 12:31:19;;;;;;;0.58;0.54;;;;;;;;;;343007;154;857921;-62
2021/09/21 12:32:23;;;;;;;0.74;0.48;;;;;;;;;;346345;152;866621;-61
2021/09/21 12:33:24;;;;;;;0.59;0.53;;;;;;;;;;345604;154;857259;-61
2021/09/21 12:34:28;;;;;;;1.04;0.70;;;;;;;;;;346069;151;860098;-61
2021/09/21 12:35:30;;;;;;;2.10;0.72;;;;;;;;;;344347;154;864869;-60
2021/09/21 12:36:43;;;;;;;0.98;0.61;;;;;;;;;;345977;154;860166;-62
2021/09/21 12:37:42;;;;;;;0.91;0.71;;;;;;;;;;343951;154;858017;-61
2021/09/21 12:38:44;;;;;;;1.45;0.66;;;;;;;;;;345777;151;859814;-62
2021/09/21 12:39:45;;;;;;;0.76;0.52;;;;;;;;;;345137;152;858953;-61
2021/09/21 12:40:57;;;;;;;0.72;0.70;;;;;;;;;;345701;154;864838;-60
2021/09/21 12:41:59;;;;;;;0.54;0.54;;;;;;;;;;346371;151;858258;-62
2021/09/21 12:43:02;;;;;;;1.06;0.91;;;;;;;;;;345498;152;857856;-61
2021/09/21 12:44:07;;;;;;;1.27;0.67;;;;;;;;;;346398;154;857270;-62
2021/09/21 12:45:10;;;;;;;0.77;0.60;;;;;;;;;;346862;152;858063;-61
2021/09/21 12:46:14;;;;;;;0.85;0.65;;;;;;;;;;345725;151;857982;-61
2021/09/21 12:47:16;;;;;;;1.68;0.74;;;;;;;;;;342140;156;857515;-62
2021/09/21 12:48:22;;;;;;;1.23;0.60;;;;;;;;;;342619;156;857426;-61
2021/09/21 12:49:25;;;;;;;0.94;0.71;;;;;;;;;;344289;152;865064;-63
2021/09/21 12:50:29;;;;;;;1.83;0.96;;;;;;;;;;346636;154;856260;-62
2021/09/21 12:51:31;;;;;;;1.94;0.84;;;;;;;;;;345304;154;856232;-62
2021/09/21 12:52:33;;;;;;;1.64;1.07;;;;;;;;;;345111;151;863785;-63
2021/09/21 12:53:35;;;;;;;2.64;1.08;;;;;;;;;;344942;151;865869;-62
2021/09/21 12:54:36;;;;;;;1.79;1.03;;;;;;;;;;345492;154;866041;-62
2021/09/21 12:55:38;;;;;;;2.19;0.97;;;;;;;;;;344755;154;866130;-62
2021/09/21 12:56:42;;;;;;;2.02;1.31;;;;;;;;;;344799;151;866883;-62
2021/09/21 12:57:46;;;;;;;1.70;1.36;;;;;;;;;;345119;154;865183;-62
2021/09/21 12:58:47;;;;;;;3.64;1.02;;;;;;;;;;344414;154;857414;-62
2021/09/21 12:59:52;;;;;;;1.81;1.20;;;;;;;;;;345974;154;857771;-62
2021/09/21 13:00:55;;;;;;;1.71;1.44;;;;;;;;;;345409;152;857526;-62
2021/09/21 13:01:57;;;;;;;1.35;1.19;;;;;;;;;;345558;154;857879;-61
2021/09/21 13:02:58;;;;;;;4.37;1.41;;;;;;;;;;346096;154;859395;-62
2021/09/21 13:04:00;;;;;;;2.10;1.26;;;;;;;;;;345140;151;865217;-62
2021/09/21 13:05:04;;;;;;;2.61;1.44;;;;;;;;;;345241;154;860217;-62
2021/09/21 13:06:06;;;;;;;1.92;1.15;;;;;;;;;;345370;154;865081;-62
2021/09/21 13:07:08;;;;;;;2.37;1.25;;;;;;;;;;346682;150;865165;-62
2021/09/21 13:08:09;;;;;;;2.28;1.19;;;;;;;;;;346740;152;857334;-62
2021/09/21 13:09:11;;;;;;;1.96;1.34;;;;;;;;;;344789;154;866041;-62
2021/09/21 13:10:13;;;;;;;1.57;1.10;;;;;;;;;;344782;150;868357;-62
2021/09/21 13:11:14;;;;;;;2.21;1.23;;;;;;;;;;345741;152;858832;-62
2021/09/21 13:12:16;;;;;;;1.71;1.19;;;;;;;;;;345588;151;865561;-62
2021/09/21 13:13:18;;;;;;;1.47;0.89;;;;;;;;;;343964;151;866749;-62
2021/09/21 13:14:20;;;;;;;1.76;1.15;;;;;;;;;;345987;154;857246;-62
2021/09/21 13:15:21;;;;;;;2.85;1.38;;;;;;;;;;342755;154;857448;-62
2021/09/21 13:16:23;;;;;;;1.65;0.97;;;;;;;;;;347313;153;857350;-62
2021/09/21 13:17:25;;;;;;;2.10;1.19;;;;;;;;;;342956;155;859024;-62
2021/09/21 13:18:26;;;;;;;1.31;1.06;;;;;;;;;;345511;153;859078;-62
2021/09/21 13:19:28;;;;;;;2.04;1.16;;;;;;;;;;347900;151;865331;-62
2021/09/21 13:20:32;;;;;;;1.33;1.00;;;;;;;;;;347047;154;859222;-61
2021/09/21 13:21:33;;;;;;;2.89;1.04;;;;;;;;;;347110;150;857423;-62
2021/09/21 13:22:35;;;;;;;2.67;0.89;;;;;;;;;;347672;152;857298;-62
2021/09/21 13:23:37;;;;;;;1.61;0.80;;;;;;;;;;349733;154;858334;-62
2021/09/21 13:24:38;;;;;;;0.97;0.81;;;;;;;;;;348745;154;857247;-61
2021/09/21 13:25:40;;;;;;;2.51;1.04;;;;;;;;;;345812;153;857302;-62
2021/09/21 13:26:42;;;;;;;4.77;0.87;;;;;;;;;;348788;151;859030;-62
2021/09/21 13:27:43;;;;;;;1.79;1.03;;;;;;;;;;347162;154;857751;-62
2021/09/21 13:28:45;;;;;;;1.28;1.05;;;;;;;;;;344736;151;864943;-62
2021/09/21 13:29:47;;;;;;;1.42;0.86;;;;;;;;;;345774;150;857755;-62
2021/09/21 13:30:50;;;;;;;1.25;1.02;;;;;;;;;;344976;154;857381;-62
2021/09/21 13:31:52;;;;;;;4.61;1.19;;;;;;;;;;344882;151;857543;-62
2021/09/21 13:32:53;;;;;;;2.51;0.94;;;;;;;;;;347034;150;864530;-62
2021/09/21 13:33:55;;;;;;;3.58;0.99;;;;;;;;;;347173;152;864881;-63
2021/09/21 13:34:56;;;;;;;2.31;1.39;;;;;;;;;;345388;154;857381;-63
2021/09/21 13:35:58;;;;;;;2.51;1.01;;;;;;;;;;346545;151;857249;-63
2021/09/21 13:37:00;;;;;;;2.62;1.36;;;;;;;;;;346333;152;866585;-62
2021/09/21 13:38:01;;;;;;;2.12;1.24;;;;;;;;;;344107;154;865783;-62
2021/09/21 13:39:03;;;;;;;1.80;1.12;;;;;;;;;;343656;156;859603;-62
2021/09/21 13:40:08;;;;;;;2.66;1.17;;;;;;;;;;344894;150;865031;-62
2021/09/21 13:41:10;;;;;;;1.76;1.22;;;;;;;;;;344690;153;857973;-62
2021/09/21 13:42:11;;;;;;;1.51;1.21;;;;;;;;;;343392;154;859745;-62
2021/09/21 13:43:13;;;;;;;2.19;1.12;;;;;;;;;;348916;150;866697;-62
2021/09/21 13:44:15;;;;;;;2.66;1.33;;;;;;;;;;345645;150;859145;-62
2021/09/21 13:45:17;;;;;;;1.47;1.28;;;;;;;;;;349126;154;865927;-62
2021/09/21 13:46:19;;;;;;;1.54;1.18;;;;;;;;;;348620;154;857386;-62
2021/09/21 13:47:20;;;;;;;1.95;1.27;;;;;;;;;;345113;152;859125;-62
2021/09/21 13:48:22;;;;;;;2.12;1.35;;;;;;;;;;341025;154;858873;-62
2021/09/21 13:49:24;;;;;;;2.00;1.26;;;;;;;;;;339753;156;857482;-62
2021/09/21 13:50:27;;;;;;;1.52;1.09;;;;;;;;;;344683;151;859925;-64
2021/09/21 13:51:28;;;;;;;3.37;1.27;;;;;;;;;;345906;150;859118;-62
2021/09/21 13:52:30;;;;;;;2.43;1.40;;;;;;;;;;345054;154;859298;-64
2021/09/21 13:53:32;;;;;;;3.21;1.32;;;;;;;;;;345408;154;862734;-63
2021/09/21 13:54:33;;;;;;;1.43;1.17;;;;;;;;;;345661;150;860616;-63
2021/09/21 13:55:35;;;;;;;1.93;1.40;;;;;;;;;;345400;152;865421;-63
2021/09/21 13:56:36;;;;;;;2.05;1.37;;;;;;;;;;346015;154;865023;-63
2021/09/21 13:57:38;;;;;;;1.86;1.19;;;;;;;;;;345699;151;864876;-63
2021/09/21 13:58:40;;;;;;;2.35;1.29;;;;;;;;;;345983;150;857334;-62
2021/09/21 13:59:42;;;;;;;2.43;1.37;;;;;;;;;;346335;151;859102;-63
2021/09/21 14:00:44;;;;;;;2.69;1.30;;;;;;;;;;346141;154;858263;-63
2021/09/21 14:01:46;;;;;;;1.65;1.07;;;;;;;;;;345510;150;858616;-63
2021/09/21 14:02:48;;;;;;;1.64;1.34;;;;;;;;;;339393;155;864960;-62
2021/09/21 14:03:50;;;;;;;1.35;0.99;;;;;;;;;;343499;155;865055;-63
2021/09/21 14:04:51;;;;;;;1.40;0.88;;;;;;;;;;343057;151;864891;-62
2021/09/21 14:05:53;;;;;;;5.71;0.99;;;;;;;;;;343032;151;857967;-62
2021/09/21 14:06:55;;;;;;;1.25;0.83;;;;;;;;;;343315;155;865373;-62
2021/09/21 14:07:57;;;;;;;1.85;0.90;;;;;;;;;;339702;158;857426;-62
2021/09/21 14:08:58;;;;;;;1.13;0.91;;;;;;;;;;348724;151;865992;-61
2021/09/21 14:10:00;;;;;;;1.56;0.82;;;;;;;;;;352991;149;857483;-62
2021/09/21 14:11:02;;;;;;;1.86;0.86;;;;;;;;;;350864;148;857257;-62